createdAt,value
2019-01-05T00:00:54.791Z,0.00
2019-01-05T00:04:00.106Z,0.00
2019-01-05T00:07:03.990Z,0.00
2019-01-05T00:10:09.081Z,0.00
2019-01-05T00:13:10.664Z,0.00
2019-01-05T00:16:15.831Z,0.00
2019-01-05T00:19:35.123Z,0.00
2019-01-05T00:22:44.214Z,0.00
2019-01-05T00:26:00.189Z,0.10
2019-01-05T00:29:16.131Z,0.10
2019-01-05T00:32:39.457Z,0.00
2019-01-05T00:36:01.680Z,0.00
2019-01-05T00:39:16.800Z,0.10
2019-01-05T00:42:23.678Z,0.10
2019-01-05T00:45:36.940Z,0.10
2019-01-05T00:48:37.274Z,0.20
2019-01-05T00:51:43.619Z,0.20
2019-01-05T00:54:50.811Z,0.20
2019-01-05T00:58:10.441Z,0.20
2019-01-05T01:01:17.224Z,0.20
2019-01-05T01:04:22.083Z,0.20
2019-01-05T01:07:27.101Z,0.20
2019-01-05T01:10:25.829Z,0.20
2019-01-05T01:13:30.933Z,0.20
2019-01-05T01:16:43.513Z,0.20
2019-01-05T01:19:59.164Z,0.20
2019-01-05T01:23:10.699Z,0.20
2019-01-05T01:26:27.525Z,0.20
2019-01-05T01:29:33.665Z,0.20
2019-01-05T01:32:51.955Z,0.20
2019-01-05T01:35:57.334Z,0.20
2019-01-05T01:39:24.343Z,0.20
2019-01-05T01:42:31.405Z,0.30
2019-01-05T01:45:38.224Z,0.30
2019-01-05T01:48:44.364Z,0.20
2019-01-05T01:51:47.969Z,0.20
2019-01-05T01:54:54.996Z,0.10
2019-01-05T01:58:03.502Z,0.10
2019-01-05T02:01:09.345Z,0.00
2019-01-05T02:04:34.158Z,0.00
2019-01-05T02:07:43.069Z,0.00
2019-01-05T02:10:49.360Z,0.00
2019-01-05T02:13:59.017Z,-0.10
2019-01-05T02:17:15.709Z,-0.10
2019-01-05T02:20:52.748Z,-0.10
2019-01-05T02:24:30.490Z,-0.20
2019-01-05T02:28:08.274Z,-0.10
2019-01-05T02:32:10.899Z,-0.20
2019-01-05T02:35:48.549Z,-0.20
2019-01-05T02:39:31.346Z,-0.20
2019-01-05T02:43:10.567Z,-0.30
2019-01-05T02:47:21.856Z,-0.30
2019-01-05T02:51:05.066Z,-0.30
2019-01-05T02:55:03.648Z,-0.30
2019-01-05T02:58:35.801Z,-0.30
2019-01-05T03:02:34.544Z,-0.30
2019-01-05T03:06:22.915Z,-0.30
2019-01-05T03:09:59.850Z,-0.20
2019-01-05T03:13:52.330Z,-0.20
2019-01-05T03:17:53.020Z,-0.10
2019-01-05T03:21:18.761Z,0.00
2019-01-05T03:25:07.876Z,0.00
2019-01-05T03:28:56.526Z,0.00
2019-01-05T03:32:43.517Z,0.00
2019-01-05T03:36:23.682Z,0.10
2019-01-05T03:40:14.844Z,0.10
2019-01-05T03:43:55.202Z,0.00
2019-01-05T03:47:42.931Z,0.10
2019-01-05T03:51:46.033Z,0.10
2019-01-05T03:55:31.994Z,0.10
2019-01-05T03:59:15.109Z,0.10
2019-01-05T04:03:07.540Z,0.20
2019-01-05T04:06:38.622Z,0.20
2019-01-05T04:10:21.413Z,0.20
2019-01-05T04:13:51.389Z,0.20
2019-01-05T04:17:55.241Z,0.20
2019-01-05T04:21:53.356Z,0.20
2019-01-05T04:25:56.512Z,0.20
2019-01-05T04:29:30.089Z,0.20
2019-01-05T04:33:04.582Z,0.30
2019-01-05T04:36:46.664Z,0.30
2019-01-05T04:40:22.976Z,0.30
2019-01-05T04:44:01.017Z,0.40
2019-01-05T04:48:14.278Z,0.40
2019-01-05T04:51:50.420Z,0.40
2019-01-05T04:55:31.928Z,0.40
2019-01-05T04:59:05.481Z,0.50
2019-01-05T05:03:07.306Z,0.50
2019-01-05T05:07:01.046Z,0.50
2019-01-05T05:11:05.328Z,0.40
2019-01-05T05:14:40.887Z,0.40
2019-01-05T05:18:21.949Z,0.40
2019-01-05T05:22:11.647Z,0.40
2019-01-05T05:25:49.968Z,0.40
2019-01-05T05:29:39.250Z,0.40
2019-01-05T05:33:15.571Z,0.40
2019-01-05T05:36:59.679Z,0.30
2019-01-05T05:40:41.285Z,0.20
2019-01-05T05:44:15.538Z,0.10
2019-01-05T05:47:56.539Z,0.00
2019-01-05T05:51:54.585Z,-0.10
2019-01-05T05:55:45.535Z,-0.10
2019-01-05T05:59:28.733Z,-0.20
2019-01-05T06:03:12.136Z,-0.20
2019-01-05T06:07:08.048Z,-0.20
2019-01-05T06:10:42.544Z,-0.10
2019-01-05T06:14:55.965Z,-0.10
2019-01-05T06:18:33.693Z,-0.10
2019-01-05T06:22:38.412Z,-0.10
2019-01-05T06:26:39.082Z,-0.10
2019-01-05T06:30:33.217Z,-0.10
2019-01-05T06:34:23.670Z,-0.30
2019-01-05T06:38:21.487Z,-0.30
2019-01-05T06:42:14.303Z,-0.40
2019-01-05T06:45:53.505Z,-0.50
2019-01-05T06:49:39.910Z,-0.50
2019-01-05T06:54:06.506Z,-0.60
2019-01-05T06:57:49.986Z,-0.70
2019-01-05T07:01:56.065Z,-0.70
2019-01-05T07:06:12.908Z,-0.70
2019-01-05T07:10:00.260Z,-0.70
2019-01-05T07:13:51.144Z,-0.80
2019-01-05T07:17:42.848Z,-0.80
2019-01-05T07:21:31.603Z,-0.90
2019-01-05T07:25:35.997Z,-0.80
2019-01-05T07:29:29.458Z,-0.80
2019-01-05T07:33:18.796Z,-0.90
2019-01-05T07:37:02.559Z,-0.90
2019-01-05T07:41:04.506Z,-1.00
2019-01-05T07:45:02.404Z,-1.00
2019-01-05T07:48:56.700Z,-0.90
2019-01-05T07:53:10.433Z,-1.00
2019-01-05T07:57:17.585Z,-0.90
2019-01-05T08:00:56.213Z,-0.90
2019-01-05T08:04:49.096Z,-0.90
2019-01-05T08:08:32.644Z,-0.90
2019-01-05T08:12:26.105Z,-0.90
2019-01-05T08:16:10.700Z,-0.90
2019-01-05T08:20:14.134Z,-0.80
2019-01-05T08:24:24.435Z,-0.80
2019-01-05T08:28:21.045Z,-0.70
2019-01-05T08:31:47.089Z,-0.60
2019-01-05T08:35:28.291Z,-0.60
2019-01-05T08:39:15.856Z,-0.70
2019-01-05T08:43:11.523Z,-0.60
2019-01-05T08:46:56.101Z,-0.60
2019-01-05T08:50:50.560Z,-0.60
2019-01-05T08:54:41.276Z,-0.60
2019-01-05T08:58:32.153Z,-0.50
2019-01-05T09:02:16.991Z,-0.50
2019-01-05T09:06:06.549Z,-0.40
2019-01-05T09:09:51.788Z,-0.40
2019-01-05T09:13:56.063Z,-0.40
2019-01-05T09:18:00.368Z,-0.40
2019-01-05T09:22:02.038Z,-0.30
2019-01-05T09:25:42.099Z,-0.30
2019-01-05T09:29:27.477Z,-0.30
2019-01-05T09:33:18.173Z,-0.30
2019-01-05T09:36:42.944Z,-0.30
2019-01-05T09:40:50.215Z,-0.30
2019-01-05T09:44:30.256Z,-0.20
2019-01-05T09:48:18.935Z,-0.20
2019-01-05T09:52:02.311Z,-0.10
2019-01-05T09:56:05.974Z,-0.10
2019-01-05T09:59:47.341Z,0.00
2019-01-05T10:03:20.693Z,0.10
2019-01-05T10:06:58.345Z,0.20
2019-01-05T10:11:02.785Z,0.20
2019-01-05T10:14:59.040Z,0.30
2019-01-05T10:19:04.652Z,0.40
2019-01-05T10:23:01.516Z,0.40
2019-01-05T10:26:42.629Z,0.60
2019-01-05T10:30:47.232Z,0.70
2019-01-05T10:34:26.292Z,0.70
2019-01-05T10:38:01.326Z,0.70
2019-01-05T10:41:58.100Z,0.70
2019-01-05T10:45:34.797Z,0.80
2019-01-05T10:49:30.477Z,0.90
2019-01-05T10:53:10.442Z,0.90
2019-01-05T10:57:13.462Z,0.80
2019-01-05T11:01:08.749Z,0.90
2019-01-05T11:04:52.455Z,0.90
2019-01-05T11:08:41.692Z,0.90
2019-01-05T11:12:30.433Z,0.80
2019-01-05T11:16:31.270Z,0.90
2019-01-05T11:20:35.735Z,0.90
2019-01-05T11:24:06.757Z,0.90
2019-01-05T11:28:02.228Z,1.00
2019-01-05T11:31:55.442Z,1.00
2019-01-05T11:35:35.804Z,1.00
2019-01-05T11:39:31.175Z,1.00
2019-01-05T11:43:34.629Z,1.00
2019-01-05T11:47:16.936Z,1.10
2019-01-05T11:51:07.588Z,1.10
2019-01-05T11:54:46.281Z,1.00
2019-01-05T11:58:58.734Z,1.00
2019-01-05T12:02:50.684Z,1.00
2019-01-05T12:07:10.372Z,1.10
2019-01-05T12:11:00.388Z,1.10
2019-01-05T12:14:47.857Z,1.10
2019-01-05T12:18:36.391Z,1.10
2019-01-05T12:22:36.621Z,1.10
2019-01-05T12:26:25.806Z,1.10
2019-01-05T12:30:14.277Z,1.10
2019-01-05T12:34:20.579Z,1.00
2019-01-05T12:38:12.786Z,1.10
2019-01-05T12:42:13.019Z,1.10
2019-01-05T12:46:07.988Z,1.10
2019-01-05T12:49:54.423Z,1.20
2019-01-05T12:53:35.572Z,1.30
2019-01-05T12:57:29.545Z,1.30
2019-01-05T13:01:18.824Z,1.20
2019-01-05T13:05:35.760Z,1.20
2019-01-05T13:09:28.851Z,1.20
2019-01-05T13:13:02.204Z,1.20
2019-01-05T13:16:54.123Z,1.20
2019-01-05T13:20:30.809Z,1.20
2019-01-05T13:24:23.337Z,1.20
2019-01-05T13:28:10.247Z,1.10
2019-01-05T13:32:06.265Z,1.10
2019-01-05T13:35:59.055Z,1.10
2019-01-05T13:39:48.428Z,1.10
2019-01-05T13:43:38.046Z,0.90
2019-01-05T13:47:32.471Z,0.90
2019-01-05T13:51:18.389Z,0.90
2019-01-05T13:54:34.560Z,1.00
2019-01-05T13:57:32.676Z,1.00
2019-01-05T14:00:38.045Z,1.00
2019-01-05T14:03:43.757Z,1.00
2019-01-05T14:06:50.241Z,1.00
2019-01-05T14:09:56.586Z,1.00
2019-01-05T14:13:01.809Z,1.00
2019-01-05T14:16:05.730Z,1.00
2019-01-05T14:19:27.656Z,1.10
2019-01-05T14:22:33.042Z,1.00
2019-01-05T14:25:38.564Z,1.00
2019-01-05T14:28:48.526Z,1.00
2019-01-05T14:31:52.654Z,1.00
2019-01-05T14:35:13.102Z,0.90
2019-01-05T14:38:28.553Z,0.90
2019-01-05T14:41:45.035Z,0.90
2019-01-05T14:44:49.773Z,0.90
2019-01-05T14:48:05.687Z,0.90
2019-01-05T14:51:21.468Z,1.00
2019-01-05T14:54:28.099Z,0.90
2019-01-05T14:57:35.144Z,1.00
2019-01-05T15:00:40.746Z,1.00
2019-01-05T15:03:51.780Z,0.90
2019-01-05T15:07:01.787Z,0.90
2019-01-05T15:10:20.634Z,0.90
2019-01-05T15:13:39.385Z,0.90
2019-01-05T15:16:55.068Z,0.90
2019-01-05T15:20:04.581Z,0.90
2019-01-05T15:23:09.907Z,1.00
2019-01-05T15:26:19.599Z,1.00
2019-01-05T15:29:24.561Z,1.00
2019-01-05T15:32:37.164Z,1.00
2019-01-05T15:36:01.714Z,1.00
2019-01-05T15:39:07.198Z,1.00
2019-01-05T15:42:22.560Z,1.00
2019-01-05T15:45:34.675Z,1.00
2019-01-05T15:48:59.956Z,1.10
2019-01-05T15:52:06.868Z,1.00
2019-01-05T15:55:28.630Z,1.00
2019-01-05T15:58:40.812Z,1.10
2019-01-05T16:01:45.956Z,1.00
2019-01-05T16:05:01.806Z,1.10
2019-01-05T16:08:09.088Z,1.10
2019-01-05T16:11:14.387Z,1.10
2019-01-05T16:14:19.735Z,1.10
2019-01-05T16:17:37.707Z,1.10
2019-01-05T16:20:43.370Z,1.10
2019-01-05T16:23:53.705Z,1.10
2019-01-05T16:27:09.383Z,1.10
2019-01-05T16:30:16.463Z,1.20
2019-01-05T16:33:17.820Z,1.20
2019-01-05T16:36:23.105Z,1.10
2019-01-05T16:39:32.727Z,1.20
2019-01-05T16:42:32.841Z,1.10
2019-01-05T16:45:28.156Z,1.10
2019-01-05T16:48:38.035Z,1.10
2019-01-05T16:51:43.115Z,1.10
2019-01-05T16:54:58.944Z,1.10
2019-01-05T16:58:04.004Z,1.10
2019-01-05T17:01:13.713Z,1.10
2019-01-05T17:04:26.508Z,1.00
2019-01-05T17:07:45.109Z,1.00
2019-01-05T17:10:55.017Z,1.00
2019-01-05T17:14:16.273Z,1.00
2019-01-05T17:17:25.986Z,1.00
2019-01-05T17:20:35.747Z,1.00
2019-01-05T17:23:39.146Z,1.00
2019-01-05T17:27:02.743Z,1.00
2019-01-05T17:30:24.326Z,1.00
2019-01-05T17:33:37.686Z,1.00
2019-01-05T17:37:02.437Z,1.00
2019-01-05T17:40:14.580Z,1.00
2019-01-05T17:43:26.925Z,1.00
2019-01-05T17:46:34.096Z,1.00
2019-01-05T17:49:34.497Z,1.00
2019-01-05T17:52:39.860Z,1.00
2019-01-05T17:55:46.666Z,0.90
2019-01-05T17:58:53.497Z,1.00
2019-01-05T18:02:01.037Z,1.00
2019-01-05T18:05:05.200Z,1.00
2019-01-05T18:08:23.708Z,1.00
2019-01-05T18:11:35.892Z,0.90
2019-01-05T18:14:57.593Z,1.00
2019-01-05T18:18:04.509Z,0.90
2019-01-05T18:21:05.659Z,0.90
2019-01-05T18:24:22.173Z,1.00
2019-01-05T18:27:27.440Z,1.00
2019-01-05T18:30:46.360Z,1.00
2019-01-05T18:33:56.257Z,1.00
2019-01-05T18:37:01.644Z,1.00
2019-01-05T18:40:11.028Z,0.90
2019-01-05T18:43:20.769Z,0.90
2019-01-05T18:46:26.599Z,1.00
2019-01-05T18:49:24.103Z,1.00
2019-01-05T18:52:29.969Z,1.00
2019-01-05T18:55:45.789Z,1.00
2019-01-05T18:59:01.947Z,1.00
2019-01-05T19:02:11.308Z,1.00
2019-01-05T19:05:20.781Z,1.00
2019-01-05T19:08:30.366Z,1.10
2019-01-05T19:11:32.836Z,1.10
2019-01-05T19:14:57.945Z,1.10
2019-01-05T19:18:01.122Z,1.10
2019-01-05T19:21:13.000Z,1.10
2019-01-05T19:24:02.782Z,1.10
2019-01-05T19:27:08.324Z,1.20
2019-01-05T19:30:10.402Z,1.20
2019-01-05T19:33:18.580Z,1.20
2019-01-05T19:36:25.773Z,1.20
2019-01-05T19:39:41.796Z,1.20
2019-01-05T19:42:48.812Z,1.20
2019-01-05T19:45:53.616Z,1.20
2019-01-05T19:49:09.523Z,1.10
2019-01-05T19:52:22.365Z,1.10
2019-01-05T19:55:32.021Z,1.10
2019-01-05T19:58:41.549Z,1.10
2019-01-05T20:01:46.807Z,1.00
2019-01-05T20:05:02.636Z,1.00
2019-01-05T20:08:20.996Z,1.10
2019-01-05T20:11:26.625Z,1.00
2019-01-05T20:14:30.076Z,1.00
2019-01-05T20:17:41.260Z,1.10
2019-01-05T20:20:48.052Z,1.10
2019-01-05T20:24:06.501Z,1.10
2019-01-05T20:27:19.074Z,1.10
2019-01-05T20:30:42.296Z,1.10
2019-01-05T20:33:46.976Z,1.10
2019-01-05T20:36:59.364Z,1.20
2019-01-05T20:40:04.422Z,1.20
2019-01-05T20:43:14.151Z,1.20
2019-01-05T20:46:38.667Z,1.20
2019-01-05T20:49:44.227Z,1.20
2019-01-05T20:52:49.082Z,1.20
2019-01-05T20:56:06.598Z,1.20
2019-01-05T20:59:12.375Z,1.20
2019-01-05T21:02:17.933Z,1.20
2019-01-05T21:05:28.079Z,1.20
2019-01-05T21:08:30.508Z,1.20
2019-01-05T21:11:33.597Z,1.20
2019-01-05T21:14:40.939Z,1.10
2019-01-05T21:17:56.374Z,1.10
2019-01-05T21:21:02.845Z,1.10
2019-01-05T21:24:11.542Z,1.10
2019-01-05T21:27:27.325Z,1.10
2019-01-05T21:30:34.256Z,1.10
2019-01-05T21:33:45.453Z,1.00
2019-01-05T21:37:04.199Z,1.00
2019-01-05T21:40:09.494Z,1.00
2019-01-05T21:43:08.425Z,1.00
2019-01-05T21:46:14.144Z,1.00
2019-01-05T21:49:26.976Z,1.00
2019-01-05T21:52:42.813Z,1.00
2019-01-05T21:55:48.317Z,0.90
2019-01-05T21:58:55.948Z,0.90
2019-01-05T22:02:01.276Z,0.90
2019-01-05T22:05:23.189Z,0.90
2019-01-05T22:08:27.080Z,0.90
2019-01-05T22:11:26.369Z,0.90
2019-01-05T22:14:42.060Z,0.90
2019-01-05T22:17:48.387Z,0.90
2019-01-05T22:20:55.372Z,0.90
2019-01-05T22:24:02.508Z,0.90
2019-01-05T22:27:21.369Z,0.90
2019-01-05T22:30:42.334Z,0.90
2019-01-05T22:33:48.057Z,0.80
2019-01-05T22:37:02.539Z,0.80
2019-01-05T22:40:08.310Z,0.80
2019-01-05T22:43:27.672Z,0.80
2019-01-05T22:46:43.341Z,0.80
2019-01-05T22:49:56.188Z,0.80
2019-01-05T22:53:03.757Z,0.80
2019-01-05T22:56:08.550Z,0.90
2019-01-05T22:59:14.369Z,0.90
2019-01-05T23:02:26.406Z,0.90
2019-01-05T23:05:28.999Z,0.80
2019-01-05T23:08:39.342Z,0.90
2019-01-05T23:11:47.873Z,0.90
2019-01-05T23:14:53.473Z,0.90
2019-01-05T23:17:53.401Z,0.90
2019-01-05T23:21:02.260Z,0.90
2019-01-05T23:24:07.133Z,0.90
2019-01-05T23:27:12.468Z,0.90
2019-01-05T23:30:19.027Z,0.90
2019-01-05T23:33:23.721Z,0.90
2019-01-05T23:36:35.025Z,0.90
2019-01-05T23:39:42.063Z,0.90
2019-01-05T23:42:41.678Z,0.90
2019-01-05T23:45:54.520Z,0.90
2019-01-05T23:49:00.138Z,0.90
2019-01-05T23:52:22.180Z,0.90
2019-01-05T23:55:27.635Z,0.90
2019-01-05T23:58:48.098Z,0.90
